createdAt,value
2022-09-24T00:02:18.853Z,101433.03
2022-09-24T00:04:45.967Z,101441.28
2022-09-24T00:07:12.755Z,101441.91
2022-09-24T00:09:39.587Z,101446.25
2022-09-24T00:12:06.601Z,101435.78
2022-09-24T00:14:33.376Z,101439.31
2022-09-24T00:17:00.147Z,101438.66
2022-09-24T00:19:27.137Z,101435.94
2022-09-24T00:21:53.997Z,101435.16
2022-09-24T00:24:39.171Z,101433.09
2022-09-24T00:27:06.440Z,101431.38
2022-09-24T00:29:34.254Z,101428.81
2022-09-24T00:32:01.735Z,101422.88
2022-09-24T00:34:29.567Z,101427.03
2022-09-24T00:36:56.346Z,101430.53
2022-09-24T00:39:23.138Z,101428.97
2022-09-24T00:41:50.282Z,101431.69
2022-09-24T00:44:35.997Z,101425.84
2022-09-24T00:47:03.065Z,101423.91
2022-09-24T00:49:29.932Z,101423.78
2022-09-24T00:51:56.824Z,101416.97
2022-09-24T00:54:26.500Z,101411.91
2022-09-24T00:56:54.110Z,101408.66
2022-09-24T00:59:23.189Z,101412.09
2022-09-24T01:01:51.790Z,101416.50
2022-09-24T01:04:22.286Z,101415.50
2022-09-24T01:06:50.030Z,101410.50
2022-09-24T01:09:18.767Z,101408.88
2022-09-24T01:11:45.488Z,101405.47
2022-09-24T01:14:26.864Z,101405.59
2022-09-24T01:16:57.052Z,101401.75
2022-09-24T01:19:42.539Z,101397.22
2022-09-24T01:22:28.210Z,101392.06
2022-09-24T01:24:55.707Z,101392.13
2022-09-24T01:27:25.692Z,101400.88
2022-09-24T01:30:01.786Z,101399.34
2022-09-24T01:32:33.364Z,101381.72
2022-09-24T01:35:06.779Z,101387.97
2022-09-24T01:37:35.337Z,101386.81
2022-09-24T01:40:03.473Z,101383.44
2022-09-24T01:42:31.327Z,101383.81
2022-09-24T01:44:58.999Z,101376.81
2022-09-24T01:47:35.093Z,101383.50
2022-09-24T01:50:03.770Z,101372.50
2022-09-24T01:52:34.571Z,101385.34
2022-09-24T01:55:03.788Z,101377.91
2022-09-24T01:57:36.403Z,101376.53
2022-09-24T02:00:03.414Z,101370.41
2022-09-24T02:02:45.475Z,101377.13
2022-09-24T02:05:32.754Z,101375.72
2022-09-24T02:08:12.041Z,101382.97
2022-09-24T02:10:46.495Z,101374.63
2022-09-24T02:13:15.762Z,101378.44
2022-09-24T02:15:45.789Z,101381.97
2022-09-24T02:18:14.543Z,101375.34
2022-09-24T02:20:43.122Z,101380.38
2022-09-24T02:23:11.868Z,101374.38
2022-09-24T02:25:58.979Z,101369.66
2022-09-24T02:28:26.751Z,101360.78
2022-09-24T02:31:04.866Z,101360.09
2022-09-24T02:33:51.595Z,101362.50
2022-09-24T02:36:18.779Z,101368.59
2022-09-24T02:38:46.902Z,101360.91
2022-09-24T02:41:14.053Z,101363.19
2022-09-24T02:43:41.210Z,101357.41
2022-09-24T02:46:11.318Z,101359.69
2022-09-24T02:48:38.175Z,101351.31
2022-09-24T02:51:05.692Z,101353.56
2022-09-24T02:53:33.197Z,101347.31
2022-09-24T02:56:03.109Z,101347.44
2022-09-24T02:58:30.834Z,101346.44
2022-09-24T03:00:57.954Z,101355.03
2022-09-24T03:03:24.730Z,101356.13
2022-09-24T03:05:54.981Z,101358.44
2022-09-24T03:08:22.323Z,101355.75
2022-09-24T03:10:51.200Z,101353.31
2022-09-24T03:13:18.440Z,101351.59
2022-09-24T03:15:46.158Z,101351.31
2022-09-24T03:18:13.289Z,101347.84
2022-09-24T03:20:40.232Z,101341.00
2022-09-24T03:23:07.199Z,101335.25
2022-09-24T03:25:33.955Z,101338.72
2022-09-24T03:28:00.805Z,101345.53
2022-09-24T03:30:46.295Z,101332.72
2022-09-24T03:33:13.918Z,101341.00
2022-09-24T03:35:42.505Z,101337.88
2022-09-24T03:38:09.286Z,101330.28
2022-09-24T03:40:36.154Z,101333.53
2022-09-24T03:43:03.255Z,101330.03
2022-09-24T03:45:30.026Z,101333.72
2022-09-24T03:47:56.825Z,101330.16
2022-09-24T03:50:23.829Z,101333.91
2022-09-24T03:52:50.927Z,101323.31
2022-09-24T03:55:17.920Z,101328.81
2022-09-24T03:57:44.896Z,101324.41
2022-09-24T04:00:11.993Z,101320.59
2022-09-24T04:02:39.186Z,101319.75
2022-09-24T04:05:06.363Z,101315.28
2022-09-24T04:07:33.134Z,101317.97
2022-09-24T04:10:00.036Z,101320.84
2022-09-24T04:12:27.570Z,101314.50
2022-09-24T04:14:54.444Z,101315.00
2022-09-24T04:17:21.231Z,101314.03
2022-09-24T04:19:48.268Z,101315.31
2022-09-24T04:22:15.027Z,101314.81
2022-09-24T04:24:41.830Z,101310.56
2022-09-24T04:27:08.825Z,101312.09
2022-09-24T04:29:35.591Z,101315.66
2022-09-24T04:32:03.596Z,101318.22
2022-09-24T04:34:30.595Z,101315.53
2022-09-24T04:36:57.356Z,101313.97
2022-09-24T04:39:26.891Z,101314.19
2022-09-24T04:41:54.201Z,101310.31
2022-09-24T04:44:21.055Z,101317.38
2022-09-24T04:46:49.017Z,101314.75
2022-09-24T04:49:16.217Z,101308.63
2022-09-24T04:51:43.023Z,101312.81
2022-09-24T04:54:10.462Z,101314.41
2022-09-24T04:56:37.464Z,101315.22
2022-09-24T04:59:04.736Z,101316.16
2022-09-24T05:01:31.905Z,101311.84
2022-09-24T05:03:58.958Z,101316.09
2022-09-24T05:06:25.775Z,101319.69
2022-09-24T05:08:53.302Z,101312.75
2022-09-24T05:11:20.391Z,101313.63
2022-09-24T05:13:47.199Z,101313.94
2022-09-24T05:16:14.117Z,101323.94
2022-09-24T05:18:41.304Z,101316.75
2022-09-24T05:21:08.145Z,101316.69
2022-09-24T05:23:34.922Z,101318.22
2022-09-24T05:26:20.239Z,101323.59
2022-09-24T05:28:47.078Z,101318.97
2022-09-24T05:31:14.336Z,101321.78
2022-09-24T05:33:41.162Z,101323.38
2022-09-24T05:36:08.048Z,101326.50
2022-09-24T05:38:35.007Z,101335.69
2022-09-24T05:41:01.819Z,101339.06
2022-09-24T05:43:28.780Z,101338.38
2022-09-24T05:45:58.714Z,101326.75
2022-09-24T05:48:26.199Z,101329.56
2022-09-24T05:50:55.524Z,101330.47
2022-09-24T05:53:23.306Z,101325.91
2022-09-24T05:55:50.288Z,101322.59
2022-09-24T05:58:18.219Z,101320.47
2022-09-24T06:00:48.190Z,101316.50
2022-09-24T06:03:15.762Z,101325.13
2022-09-24T06:05:46.555Z,101326.22
2022-09-24T06:08:15.305Z,101324.38
2022-09-24T06:10:42.801Z,101327.53
2022-09-24T06:13:11.666Z,101327.84
2022-09-24T06:15:39.139Z,101328.81
2022-09-24T06:18:05.981Z,101335.69
2022-09-24T06:20:33.740Z,101329.31
2022-09-24T06:23:00.800Z,101333.00
2022-09-24T06:25:27.569Z,101331.88
2022-09-24T06:28:01.377Z,101340.06
2022-09-24T06:30:31.457Z,101337.84
2022-09-24T06:33:05.587Z,101341.50
2022-09-24T06:35:36.407Z,101341.81
2022-09-24T06:38:03.779Z,101327.25
2022-09-24T06:40:36.237Z,101333.41
2022-09-24T06:43:04.305Z,101327.34
2022-09-24T06:45:31.097Z,101328.03
2022-09-24T06:47:58.862Z,101328.28
2022-09-24T06:50:27.144Z,101326.75
2022-09-24T06:52:54.114Z,101328.03
2022-09-24T06:55:20.895Z,101328.44
2022-09-24T06:57:47.981Z,101333.03
2022-09-24T07:00:15.709Z,101327.84
2022-09-24T07:02:42.617Z,101329.03
2022-09-24T07:05:10.062Z,101324.84
2022-09-24T07:07:37.763Z,101320.34
2022-09-24T07:10:06.258Z,101325.78
2022-09-24T07:12:34.432Z,101330.19
2022-09-24T07:15:01.586Z,101326.25
2022-09-24T07:17:33.653Z,101327.06
2022-09-24T07:20:01.155Z,101335.69
2022-09-24T07:22:28.575Z,101335.91
2022-09-24T07:24:55.339Z,101344.41
2022-09-24T07:27:22.488Z,101344.59
2022-09-24T07:29:49.663Z,101342.97
2022-09-24T07:32:20.243Z,101343.34
2022-09-24T07:34:50.163Z,101347.31
2022-09-24T07:37:16.929Z,101348.13
2022-09-24T07:39:45.651Z,101342.81
2022-09-24T07:42:12.794Z,101348.19
2022-09-24T07:44:39.535Z,101352.13
2022-09-24T07:47:06.490Z,101350.81
2022-09-24T07:49:33.614Z,101348.56
2022-09-24T07:52:00.487Z,101345.19
2022-09-24T07:54:27.345Z,101348.19
2022-09-24T07:56:54.453Z,101358.94
2022-09-24T07:59:21.346Z,101351.19
2022-09-24T08:01:48.169Z,101345.06
2022-09-24T08:04:15.289Z,101347.50
2022-09-24T08:06:47.241Z,101339.75
2022-09-24T08:09:15.600Z,101347.94
2022-09-24T08:11:42.726Z,101352.81
2022-09-24T08:14:09.890Z,101353.19
2022-09-24T08:16:36.950Z,101351.44
2022-09-24T08:19:04.399Z,101354.97
2022-09-24T08:21:32.406Z,101354.34
2022-09-24T08:23:59.185Z,101351.81
2022-09-24T08:26:26.139Z,101347.41
2022-09-24T08:28:53.132Z,101347.25
2022-09-24T08:31:20.109Z,101347.88
2022-09-24T08:33:50.862Z,101347.34
2022-09-24T08:36:18.683Z,101346.53
2022-09-24T08:38:45.473Z,101352.09
2022-09-24T08:41:12.436Z,101342.16
2022-09-24T08:43:42.894Z,101345.78
2022-09-24T08:46:37.899Z,101349.50
2022-09-24T08:49:06.611Z,101346.56
2022-09-24T08:51:39.570Z,101342.41
2022-09-24T08:54:09.913Z,101344.00
2022-09-24T08:56:38.622Z,101344.91
2022-09-24T08:59:14.462Z,101338.78
2022-09-24T09:01:48.793Z,101346.50
2022-09-24T09:04:25.644Z,101335.81
2022-09-24T09:07:02.237Z,101342.81
2022-09-24T09:09:38.518Z,101345.00
2022-09-24T09:12:10.776Z,101340.81
2022-09-24T09:14:54.414Z,101343.31
2022-09-24T09:17:21.411Z,101352.94
2022-09-24T09:19:53.966Z,101348.50
2022-09-24T09:22:23.834Z,101348.53
2022-09-24T09:24:52.115Z,101340.78
2022-09-24T09:27:20.114Z,101346.34
2022-09-24T09:30:03.164Z,101343.09
2022-09-24T09:32:39.202Z,101356.00
2022-09-24T09:35:08.855Z,101354.56
2022-09-24T09:37:39.481Z,101349.25
2022-09-24T09:40:29.149Z,101341.19
2022-09-24T09:43:03.077Z,101337.38
2022-09-24T09:45:33.035Z,101340.63
2022-09-24T09:48:03.190Z,101340.44
2022-09-24T09:50:49.037Z,101339.00
2022-09-24T09:53:21.204Z,101337.22
2022-09-24T09:56:07.722Z,101346.91
2022-09-24T09:58:36.399Z,101341.66
2022-09-24T10:01:06.377Z,101338.63
2022-09-24T10:03:56.620Z,101341.88
2022-09-24T10:06:25.522Z,101334.88
2022-09-24T10:08:52.719Z,101338.03
2022-09-24T10:11:20.092Z,101339.59
2022-09-24T10:13:47.125Z,101337.81
2022-09-24T10:16:16.127Z,101341.59
2022-09-24T10:18:47.581Z,101345.13
2022-09-24T10:21:28.329Z,101346.13
2022-09-24T10:23:59.621Z,101344.94
2022-09-24T10:26:45.468Z,101339.22
2022-09-24T10:29:33.363Z,101344.28
2022-09-24T10:32:00.571Z,101340.41
2022-09-24T10:34:28.636Z,101344.28
2022-09-24T10:37:07.274Z,101337.19
2022-09-24T10:39:37.333Z,101336.31
2022-09-24T10:42:05.442Z,101337.56
2022-09-24T10:44:38.556Z,101334.44
2022-09-24T10:47:11.565Z,101328.06
2022-09-24T10:49:38.303Z,101328.59
2022-09-24T10:52:09.493Z,101328.94
2022-09-24T10:54:36.493Z,101320.97
2022-09-24T10:57:18.182Z,101328.69
2022-09-24T10:59:50.245Z,101321.44
2022-09-24T11:02:31.941Z,101327.38
2022-09-24T11:04:59.481Z,101329.78
2022-09-24T11:07:45.922Z,101327.38
2022-09-24T11:10:13.112Z,101314.97
2022-09-24T11:12:46.998Z,101317.28
2022-09-24T11:15:23.156Z,101318.78
2022-09-24T11:17:56.186Z,101322.69
2022-09-24T11:20:39.587Z,101317.38
2022-09-24T11:23:12.519Z,101317.03
2022-09-24T11:25:58.140Z,101321.25
2022-09-24T11:28:43.515Z,101321.47
2022-09-24T11:31:36.940Z,101306.19
2022-09-24T11:34:21.148Z,101311.94
2022-09-24T11:36:57.498Z,101315.69
2022-09-24T11:39:42.825Z,101311.25
2022-09-24T11:42:16.820Z,101308.94
2022-09-24T11:44:44.138Z,101308.69
2022-09-24T11:47:15.257Z,101311.59
2022-09-24T11:49:42.121Z,101314.25
2022-09-24T11:52:27.539Z,101312.66
2022-09-24T11:55:13.429Z,101318.34
2022-09-24T11:57:43.276Z,101319.41
2022-09-24T12:00:14.660Z,101322.00
2022-09-24T12:02:48.000Z,101316.78
2022-09-24T12:05:22.811Z,101314.84
2022-09-24T12:07:49.562Z,101322.75
2022-09-24T12:10:19.660Z,101310.47
2022-09-24T12:12:48.927Z,101313.75
2022-09-24T12:15:20.716Z,101306.13
2022-09-24T12:17:50.761Z,101302.13
2022-09-24T12:20:23.218Z,101295.97
2022-09-24T12:22:52.140Z,101295.75
2022-09-24T12:25:19.057Z,101291.81
2022-09-24T12:27:46.688Z,101303.03
2022-09-24T12:30:49.517Z,101302.13
2022-09-24T12:33:42.577Z,101295.16
2022-09-24T12:36:16.586Z,101295.44
2022-09-24T12:38:53.233Z,101293.19
2022-09-24T12:41:24.519Z,101289.50
2022-09-24T12:43:54.578Z,101288.25
2022-09-24T12:46:23.440Z,101278.25
2022-09-24T12:48:50.848Z,101277.66
2022-09-24T12:51:22.392Z,101287.03
2022-09-24T12:53:56.667Z,101275.44
2022-09-24T12:56:26.956Z,101276.88
2022-09-24T12:58:53.813Z,101274.84
2022-09-24T13:01:27.216Z,101281.88
2022-09-24T13:04:12.990Z,101274.47
2022-09-24T13:06:40.398Z,101277.34
2022-09-24T13:09:26.214Z,101282.25
2022-09-24T13:12:03.945Z,101279.91
2022-09-24T13:14:32.600Z,101276.72
2022-09-24T13:17:05.241Z,101272.91
2022-09-24T13:19:39.094Z,101269.13
2022-09-24T13:22:06.104Z,101265.53
2022-09-24T13:24:53.330Z,101269.13
2022-09-24T13:27:32.273Z,101268.69
2022-09-24T13:30:05.048Z,101265.91
2022-09-24T13:32:34.542Z,101268.03
2022-09-24T13:35:07.221Z,101269.81
2022-09-24T13:37:38.358Z,101264.22
2022-09-24T13:40:16.985Z,101270.97
2022-09-24T13:42:46.615Z,101261.16
2022-09-24T13:45:23.797Z,101260.19
2022-09-24T13:47:53.674Z,101253.88
2022-09-24T13:50:32.844Z,101255.97
2022-09-24T13:53:02.526Z,101259.16
2022-09-24T13:55:38.238Z,101264.06
2022-09-24T13:58:05.254Z,101259.78
2022-09-24T14:00:37.614Z,101263.78
2022-09-24T14:03:17.796Z,101259.94
2022-09-24T14:05:45.069Z,101266.94
2022-09-24T14:08:15.596Z,101269.13
2022-09-24T14:10:42.927Z,101273.22
2022-09-24T14:13:19.177Z,101264.44
2022-09-24T14:15:58.316Z,101262.34
2022-09-24T14:18:26.684Z,101263.22
2022-09-24T14:20:56.287Z,101259.13
2022-09-24T14:23:24.837Z,101258.16
2022-09-24T14:25:52.563Z,101252.22
2022-09-24T14:28:19.788Z,101262.97
2022-09-24T14:30:51.489Z,101259.50
2022-09-24T14:33:20.671Z,101261.66
2022-09-24T14:35:49.601Z,101255.38
2022-09-24T14:38:20.140Z,101260.81
2022-09-24T14:40:47.386Z,101254.91
2022-09-24T14:43:37.669Z,101245.75
2022-09-24T14:46:07.605Z,101247.31
2022-09-24T14:48:35.153Z,101247.94
2022-09-24T14:51:02.339Z,101248.03
2022-09-24T14:53:36.457Z,101249.63
2022-09-24T14:56:27.194Z,101241.16
2022-09-24T14:58:54.920Z,101245.28
2022-09-24T15:01:24.446Z,101241.88
2022-09-24T15:03:56.128Z,101250.13
2022-09-24T15:06:30.496Z,101247.59
2022-09-24T15:09:00.777Z,101252.75
2022-09-24T15:11:29.215Z,101252.47
2022-09-24T15:14:02.279Z,101256.41
2022-09-24T15:16:32.081Z,101252.97
2022-09-24T15:19:19.519Z,101252.09
2022-09-24T15:21:56.794Z,101262.63
2022-09-24T15:24:25.072Z,101257.53
2022-09-24T15:27:06.183Z,101256.06
2022-09-24T15:29:33.540Z,101259.81
2022-09-24T15:32:01.341Z,101262.97
2022-09-24T15:34:29.118Z,101259.41
2022-09-24T15:36:59.195Z,101261.28
2022-09-24T15:39:27.571Z,101261.34
2022-09-24T15:41:54.436Z,101262.69
2022-09-24T15:44:28.414Z,101254.94
2022-09-24T15:46:58.515Z,101248.97
2022-09-24T15:49:26.385Z,101249.38
2022-09-24T15:51:57.296Z,101254.13
2022-09-24T15:54:25.835Z,101253.28
2022-09-24T15:56:52.773Z,101261.69
2022-09-24T15:59:20.505Z,101250.56
2022-09-24T16:01:49.549Z,101260.44
2022-09-24T16:04:17.328Z,101253.22
2022-09-24T16:06:44.173Z,101252.03
2022-09-24T16:09:11.366Z,101252.66
2022-09-24T16:11:38.192Z,101255.69
2022-09-24T16:14:05.812Z,101248.31
2022-09-24T16:16:33.349Z,101251.75
2022-09-24T16:19:00.282Z,101253.66
2022-09-24T16:21:27.031Z,101257.31
2022-09-24T16:23:57.667Z,101259.75
2022-09-24T16:26:25.312Z,101258.38
2022-09-24T16:28:52.612Z,101258.47
2022-09-24T16:31:19.890Z,101263.06
2022-09-24T16:33:47.058Z,101256.50
2022-09-24T16:36:14.144Z,101260.41
2022-09-24T16:38:41.678Z,101259.81
2022-09-24T16:41:10.619Z,101257.16
2022-09-24T16:43:37.818Z,101262.78
2022-09-24T16:46:06.965Z,101266.47
2022-09-24T16:48:35.121Z,101263.53
2022-09-24T16:51:11.718Z,101270.94
2022-09-24T16:53:38.764Z,101271.34
2022-09-24T16:56:05.646Z,101274.66
2022-09-24T16:58:33.119Z,101268.81
2022-09-24T17:01:00.363Z,101275.28
2022-09-24T17:03:27.173Z,101271.16
2022-09-24T17:05:53.997Z,101276.75
2022-09-24T17:08:22.643Z,101275.25
2022-09-24T17:10:51.648Z,101277.38
2022-09-24T17:13:23.296Z,101277.50
2022-09-24T17:15:50.107Z,101284.81
2022-09-24T17:18:16.937Z,101293.81
2022-09-24T17:20:43.949Z,101282.19
2022-09-24T17:23:10.692Z,101292.84
2022-09-24T17:25:37.591Z,101298.16
2022-09-24T17:28:04.784Z,101300.38
2022-09-24T17:30:31.819Z,101297.38
2022-09-24T17:32:59.142Z,101303.38
2022-09-24T17:35:26.659Z,101299.34
2022-09-24T17:37:53.820Z,101297.09
2022-09-24T17:40:24.342Z,101297.69
2022-09-24T17:42:52.845Z,101298.00
2022-09-24T17:45:20.037Z,101302.63
2022-09-24T17:48:00.537Z,101299.44
2022-09-24T17:50:29.281Z,101297.63
2022-09-24T17:52:57.414Z,101293.38
2022-09-24T17:55:24.508Z,101304.81
2022-09-24T17:57:52.386Z,101304.91
2022-09-24T18:00:20.276Z,101305.13
2022-09-24T18:02:49.319Z,101305.22
2022-09-24T18:05:17.115Z,101306.44
2022-09-24T18:07:45.653Z,101309.94
2022-09-24T18:10:14.449Z,101306.06
2022-09-24T18:12:42.285Z,101306.94
2022-09-24T18:15:10.682Z,101314.97
2022-09-24T18:17:37.504Z,101309.78
2022-09-24T18:20:04.452Z,101310.63
2022-09-24T18:22:31.936Z,101311.59
2022-09-24T18:25:01.793Z,101309.88
2022-09-24T18:27:31.516Z,101311.66
2022-09-24T18:29:59.001Z,101308.47
2022-09-24T18:32:26.547Z,101314.03
2022-09-24T18:34:53.291Z,101311.59
2022-09-24T18:37:20.308Z,101303.06
2022-09-24T18:39:47.514Z,101307.31
2022-09-24T18:42:14.606Z,101311.75
2022-09-24T18:44:41.964Z,101308.34
2022-09-24T18:47:08.876Z,101306.66
2022-09-24T18:49:36.793Z,101312.03
2022-09-24T18:52:03.773Z,101302.59
2022-09-24T18:54:31.172Z,101308.72
2022-09-24T18:56:57.960Z,101304.66
2022-09-24T18:59:26.228Z,101306.28
2022-09-24T19:01:53.111Z,101309.88
2022-09-24T19:04:19.961Z,101306.56
2022-09-24T19:06:52.014Z,101313.03
2022-09-24T19:09:20.386Z,101307.50
2022-09-24T19:11:49.303Z,101314.94
2022-09-24T19:14:19.986Z,101313.44
2022-09-24T19:16:47.575Z,101316.34
2022-09-24T19:19:15.943Z,101311.25
2022-09-24T19:21:42.978Z,101317.19
2022-09-24T19:24:10.060Z,101314.81
2022-09-24T19:26:37.194Z,101315.09
2022-09-24T19:29:04.823Z,101309.84
2022-09-24T19:31:34.686Z,101316.91
2022-09-24T19:34:05.013Z,101310.47
2022-09-24T19:36:36.230Z,101320.00
2022-09-24T19:39:05.814Z,101315.38
2022-09-24T19:41:32.881Z,101321.94
2022-09-24T19:44:04.544Z,101320.47
2022-09-24T19:46:34.805Z,101327.03
2022-09-24T19:49:01.976Z,101321.56
2022-09-24T19:51:31.333Z,101322.31
2022-09-24T19:54:00.308Z,101324.06
2022-09-24T19:56:27.744Z,101320.50
2022-09-24T19:58:56.026Z,101323.50
2022-09-24T20:01:24.592Z,101326.13
2022-09-24T20:03:51.929Z,101326.03
2022-09-24T20:06:20.802Z,101318.97
2022-09-24T20:08:47.819Z,101319.25
2022-09-24T20:11:17.236Z,101312.47
2022-09-24T20:13:46.356Z,101319.34
2022-09-24T20:16:15.705Z,101325.63
2022-09-24T20:18:42.821Z,101328.53
2022-09-24T20:21:12.737Z,101324.19
2022-09-24T20:23:40.580Z,101336.25
2022-09-24T20:26:26.241Z,101332.69
2022-09-24T20:28:53.252Z,101331.94
2022-09-24T20:31:21.062Z,101331.25
2022-09-24T20:33:49.248Z,101332.00
2022-09-24T20:36:20.718Z,101334.56
2022-09-24T20:38:50.302Z,101331.06
2022-09-24T20:41:19.103Z,101323.34
2022-09-24T20:43:46.340Z,101321.72
2022-09-24T20:46:24.188Z,101326.91
2022-09-24T20:48:52.090Z,101323.44
2022-09-24T20:51:21.120Z,101324.19
2022-09-24T20:53:48.809Z,101322.59
2022-09-24T20:56:16.493Z,101332.19
2022-09-24T20:58:43.766Z,101320.91
2022-09-24T21:01:11.326Z,101332.53
2022-09-24T21:03:44.265Z,101330.78
2022-09-24T21:06:12.364Z,101331.88
2022-09-24T21:08:40.706Z,101334.50
2022-09-24T21:11:09.037Z,101327.34
2022-09-24T21:13:39.781Z,101330.34
2022-09-24T21:16:07.320Z,101328.47
2022-09-24T21:18:40.158Z,101331.88
2022-09-24T21:21:10.847Z,101332.53
2022-09-24T21:23:38.518Z,101327.63
2022-09-24T21:26:20.503Z,101328.81
2022-09-24T21:28:48.315Z,101328.81
2022-09-24T21:31:16.489Z,101329.78
2022-09-24T21:33:47.228Z,101325.34
2022-09-24T21:36:18.682Z,101335.13
2022-09-24T21:38:52.920Z,101322.72
2022-09-24T21:41:20.502Z,101323.38
2022-09-24T21:43:47.327Z,101327.72
2022-09-24T21:46:14.206Z,101327.31
2022-09-24T21:48:41.228Z,101326.09
2022-09-24T21:51:13.893Z,101332.31
2022-09-24T21:53:42.579Z,101335.78
2022-09-24T21:56:09.634Z,101339.53
2022-09-24T21:58:37.050Z,101333.31
2022-09-24T22:01:07.494Z,101328.81
2022-09-24T22:03:34.962Z,101328.81
2022-09-24T22:06:03.512Z,101329.06
2022-09-24T22:08:32.055Z,101325.59
2022-09-24T22:11:03.854Z,101323.16
2022-09-24T22:13:31.881Z,101319.75
2022-09-24T22:16:00.376Z,101326.09
2022-09-24T22:18:28.125Z,101328.81
2022-09-24T22:20:55.644Z,101328.03
2022-09-24T22:23:22.979Z,101323.81
2022-09-24T22:25:56.833Z,101326.19
2022-09-24T22:28:25.280Z,101326.53
2022-09-24T22:30:53.187Z,101317.78
2022-09-24T22:33:38.812Z,101317.03
2022-09-24T22:36:05.989Z,101318.03
2022-09-24T22:38:33.213Z,101324.31
2022-09-24T22:41:00.433Z,101315.00
2022-09-24T22:43:29.350Z,101317.53
2022-09-24T22:45:59.801Z,101314.75
2022-09-24T22:48:26.819Z,101310.56
2022-09-24T22:50:53.941Z,101318.72
2022-09-24T22:53:21.246Z,101308.78
2022-09-24T22:55:52.474Z,101315.75
2022-09-24T22:58:19.861Z,101308.88
2022-09-24T23:00:46.644Z,101303.59
2022-09-24T23:03:13.419Z,101309.88
2022-09-24T23:05:40.540Z,101300.38
2022-09-24T23:08:07.365Z,101305.56
2022-09-24T23:10:34.119Z,101303.69
2022-09-24T23:13:01.093Z,101311.09
2022-09-24T23:15:27.881Z,101304.69
2022-09-24T23:17:55.024Z,101310.22
2022-09-24T23:20:22.745Z,101304.69
2022-09-24T23:22:49.666Z,101306.09
2022-09-24T23:25:17.505Z,101306.25
2022-09-24T23:27:44.418Z,101296.13
2022-09-24T23:30:11.443Z,101297.09
2022-09-24T23:32:38.168Z,101307.00
2022-09-24T23:35:05.323Z,101297.16
2022-09-24T23:37:32.056Z,101298.09
2022-09-24T23:39:58.739Z,101298.09
2022-09-24T23:42:25.676Z,101292.06
2022-09-24T23:44:52.407Z,101295.31
2022-09-24T23:47:19.091Z,101294.69
2022-09-24T23:49:45.982Z,101295.66
2022-09-24T23:52:12.722Z,101290.47
2022-09-24T23:54:40.302Z,101289.59
2022-09-24T23:57:07.543Z,101288.69
2022-09-24T23:59:34.645Z,101280.63
